Time;durP1;ratioP1;P1;durP2;ratioP2;P2;SDS_P1;SDS_P2;PMS_P1;PMS_P2;Temp;Humidity;BMP_temperature;BMP_pressure;BME280_temperature;BME280_humidity;BME280_pressure;Samples;Min_cycle;Max_cycle;Signal;HPM_P1;HPM_P2
2021/10/25 00:00:47;;;;;;;8.35;3.97;;;;;;;;;;2089257;28;20071;-43
2021/10/25 00:01:49;;;;;;;;;;;;;;;;;;2088093;28;20041;-43
2021/10/25 00:02:50;;;;;;;6.15;3.38;;;;;;;;;;2088780;28;20003;-43
2021/10/25 00:03:51;;;;;;;8.07;4.45;;;;;;;;;;2090406;28;20048;-43
2021/10/25 00:04:52;;;;;;;8.73;4.67;;;;;;;;;;2088754;28;20049;-43
2021/10/25 00:05:53;;;;;;;7.78;4.70;;;;;;;;;;2090147;28;20140;-43
2021/10/25 00:06:54;;;;;;;6.63;2.97;;;;;;;;;;2090312;28;20052;-43
2021/10/25 00:07:55;;;;;;;7.15;4.60;;;;;;;;;;2089062;28;20122;-43
2021/10/25 00:08:56;;;;;;;7.30;3.67;;;;;;;;;;2090152;28;20053;-43
2021/10/25 00:09:57;;;;;;;8.23;4.43;;;;;;;;;;2088036;28;20136;-43
2021/10/25 00:10:58;;;;;;;5.50;3.35;;;;;;;;;;2089480;28;20044;-43
2021/10/25 00:11:59;;;;;;;6.82;3.65;;;;;;;;;;2090058;28;20573;-43
2021/10/25 00:13:00;;;;;;;6.55;4.13;;;;;;;;;;2087861;28;20049;-43
2021/10/25 00:14:02;;;;;;;8.05;3.80;;;;;;;;;;2089971;28;20187;-43
2021/10/25 00:15:03;;;;;;;9.20;4.85;;;;;;;;;;2090221;28;20139;-43
2021/10/25 00:16:05;;;;;;;6.60;3.30;;;;;;;;;;2088985;28;20493;-43
2021/10/25 00:17:06;;;;;;;7.07;4.68;;;;;;;;;;2090091;28;20123;-43
2021/10/25 00:18:07;;;;;;;7.43;3.50;;;;;;;;;;2089974;28;20524;-43
2021/10/25 00:19:08;;;;;;;7.80;5.18;;;;;;;;;;2087729;28;20053;-42
2021/10/25 00:20:10;;;;;;;8.07;3.33;;;;;;;;;;2090145;28;20102;-43
2021/10/25 00:21:11;;;;;;;10.98;5.07;;;;;;;;;;2089523;28;20525;-42
2021/10/25 00:22:12;;;;;;;8.88;4.00;;;;;;;;;;2088178;28;20128;-43
2021/10/25 00:23:13;;;;;;;7.28;4.35;;;;;;;;;;2090052;28;20059;-43
2021/10/25 00:24:14;;;;;;;9.00;4.80;;;;;;;;;;2088508;28;20085;-43
2021/10/25 00:25:15;;;;;;;9.20;4.73;;;;;;;;;;2087919;28;20056;-43
2021/10/25 00:26:16;;;;;;;9.65;4.50;;;;;;;;;;2090144;28;20072;-43
2021/10/25 00:27:17;;;;;;;8.57;4.90;;;;;;;;;;2090653;28;20513;-43
2021/10/25 00:28:18;;;;;;;7.30;4.20;;;;;;;;;;2088397;28;20135;-43
2021/10/25 00:29:20;;;;;;;6.53;4.45;;;;;;;;;;2089981;28;20056;-43
2021/10/25 00:30:21;;;;;;;8.48;4.55;;;;;;;;;;2089027;28;20455;-43
2021/10/25 00:31:23;;;;;;;8.75;4.20;;;;;;;;;;2088491;28;20049;-43
2021/10/25 00:32:24;;;;;;;9.82;4.18;;;;;;;;;;2090184;28;20132;-43
2021/10/25 00:33:25;;;;;;;7.80;4.72;;;;;;;;;;2089026;28;20044;-43
2021/10/25 00:34:26;;;;;;;8.82;4.22;;;;;;;;;;2088500;28;20045;-42
2021/10/25 00:35:27;;;;;;;11.15;4.57;;;;;;;;;;2090085;28;20102;-43
2021/10/25 00:36:28;;;;;;;7.65;4.45;;;;;;;;;;2090337;28;21285;-43
2021/10/25 00:37:29;;;;;;;8.43;3.90;;;;;;;;;;2088534;28;20045;-43
2021/10/25 00:38:30;;;;;;;7.78;4.72;;;;;;;;;;2090052;28;20047;-42
2021/10/25 00:39:31;;;;;;;10.30;3.97;;;;;;;;;;2087943;28;20040;-43
2021/10/25 00:40:32;;;;;;;10.20;5.38;;;;;;;;;;2089747;28;20151;-43
2021/10/25 00:41:33;;;;;;;8.13;5.33;;;;;;;;;;2089824;28;20045;-43
2021/10/25 00:42:34;;;;;;;8.13;4.55;;;;;;;;;;2087624;28;20053;-43
2021/10/25 00:43:35;;;;;;;11.45;5.05;;;;;;;;;;2089759;28;20131;-43
2021/10/25 00:44:37;;;;;;;10.02;4.10;;;;;;;;;;2090008;28;20053;-43
2021/10/25 00:45:38;;;;;;;9.32;5.20;;;;;;;;;;2087681;28;20501;-43
2021/10/25 00:46:40;;;;;;;9.27;4.53;;;;;;;;;;2089906;28;20102;-42
2021/10/25 00:47:42;;;;;;;8.20;4.82;;;;;;;;;;2089957;28;20128;-43
2021/10/25 00:48:42;;;;;;;8.00;4.45;;;;;;;;;;2089420;28;20132;-42
2021/10/25 00:49:44;;;;;;;10.90;4.88;;;;;;;;;;2090017;28;20414;-43
2021/10/25 00:50:44;;;;;;;8.00;4.32;;;;;;;;;;2089352;28;20144;-43
2021/10/25 00:51:46;;;;;;;9.18;5.43;;;;;;;;;;2087961;28;20045;-43
2021/10/25 00:52:47;;;;;;;8.40;4.97;;;;;;;;;;2089998;28;20124;-43
2021/10/25 00:53:48;;;;;;;8.35;4.13;;;;;;;;;;2089252;28;20406;-43
2021/10/25 00:54:50;;;;;;;8.45;5.35;;;;;;;;;;2087566;28;20088;-43
2021/10/25 00:55:51;;;;;;;9.55;5.10;;;;;;;;;;2090043;28;20073;-43
2021/10/25 00:56:52;;;;;;;8.90;4.03;;;;;;;;;;2089043;28;20045;-43
2021/10/25 00:57:53;;;;;;;9.65;5.25;;;;;;;;;;2088490;28;20139;-43
2021/10/25 00:58:54;;;;;;;11.85;5.50;;;;;;;;;;2090051;28;20045;-43
2021/10/25 00:59:56;;;;;;;11.02;5.13;;;;;;;;;;2088515;28;20124;-43
2021/10/25 01:00:57;;;;;;;8.95;4.22;;;;;;;;;;2089016;28;20140;-43
2021/10/25 01:01:58;;;;;;;9.30;5.17;;;;;;;;;;2089876;28;20049;-43
2021/10/25 01:03:00;;;;;;;9.07;4.65;;;;;;;;;;2086643;28;20098;-43
2021/10/25 01:04:02;;;;;;;11.32;5.95;;;;;;;;;;2088923;28;20597;-43
2021/10/25 01:05:03;;;;;;;9.63;5.45;;;;;;;;;;2089816;28;20148;-43
2021/10/25 01:06:04;;;;;;;9.80;4.95;;;;;;;;;;2087730;28;20083;-43
2021/10/25 01:07:05;;;;;;;8.02;4.93;;;;;;;;;;2088406;28;20387;-43
2021/10/25 01:08:07;;;;;;;9.32;4.82;;;;;;;;;;2089805;28;20114;-43
2021/10/25 01:09:09;;;;;;;13.85;5.05;;;;;;;;;;2087492;28;20140;-43
2021/10/25 01:10:10;;;;;;;9.73;6.22;;;;;;;;;;2089539;28;20413;-43
2021/10/25 01:11:12;;;;;;;9.15;4.72;;;;;;;;;;2089818;28;20099;-43
2021/10/25 01:12:13;;;;;;;7.80;4.57;;;;;;;;;;2086149;28;20058;-43
2021/10/25 01:13:14;;;;;;;10.57;5.50;;;;;;;;;;2089760;28;20080;-43
2021/10/25 01:14:15;;;;;;;10.75;5.13;;;;;;;;;;2089764;28;20061;-43
2021/10/25 01:15:17;;;;;;;9.02;4.45;;;;;;;;;;2089207;28;20053;-43
2021/10/25 01:16:18;;;;;;;9.65;5.72;;;;;;;;;;2089667;28;20413;-43
2021/10/25 01:17:19;;;;;;;9.40;3.95;;;;;;;;;;2088756;28;20053;-43
2021/10/25 01:18:20;;;;;;;8.50;5.60;;;;;;;;;;2088378;28;20044;-43
2021/10/25 01:19:21;;;;;;;7.00;4.25;;;;;;;;;;2089700;28;20171;-43
2021/10/25 01:20:23;;;;;;;7.13;4.55;;;;;;;;;;2088824;28;20128;-43
2021/10/25 01:21:24;;;;;;;11.38;5.13;;;;;;;;;;2087417;28;20405;-43
2021/10/25 01:22:25;;;;;;;9.05;5.05;;;;;;;;;;2089669;28;20049;-43
2021/10/25 01:23:27;;;;;;;9.13;5.25;;;;;;;;;;2087729;28;20041;-43
2021/10/25 01:24:27;;;;;;;11.65;4.65;;;;;;;;;;2089419;28;20049;-43
2021/10/25 01:25:29;;;;;;;8.43;4.68;;;;;;;;;;2089777;28;20049;-43
2021/10/25 01:26:30;;;;;;;8.25;5.50;;;;;;;;;;2089950;28;20056;-42
2021/10/25 01:27:31;;;;;;;8.27;4.87;;;;;;;;;;2087821;28;20060;-43
2021/10/25 01:28:34;;;;;;;9.18;4.88;;;;;;;;;;2089633;28;20139;-42
2021/10/25 01:29:35;;;;;;;9.55;4.88;;;;;;;;;;2088134;28;20163;-43
2021/10/25 01:30:36;;;;;;;7.78;4.00;;;;;;;;;;2088854;28;20578;-42
2021/10/25 01:31:37;;;;;;;8.97;5.40;;;;;;;;;;2089690;28;20053;-41
2021/10/25 01:32:38;;;;;;;6.88;3.97;;;;;;;;;;2087143;28;20041;-42
2021/10/25 01:33:39;;;;;;;9.70;5.60;;;;;;;;;;2081489;28;20490;-42
2021/10/25 01:34:41;;;;;;;7.97;4.72;;;;;;;;;;2081391;28;20125;-42
2021/10/25 01:35:43;;;;;;;11.48;4.35;;;;;;;;;;2086574;28;20056;-42
2021/10/25 01:36:43;;;;;;;;;;;;;;;;;;2090119;28;20051;-42
2021/10/25 01:37:45;;;;;;;12.50;4.85;;;;;;;;;;2089702;28;19927;-42
2021/10/25 01:38:46;;;;;;;11.43;5.07;;;;;;;;;;2086459;28;20525;-42
2021/10/25 01:39:47;;;;;;;8.60;5.28;;;;;;;;;;2089705;28;20037;-42
2021/10/25 01:40:48;;;;;;;9.88;4.60;;;;;;;;;;2089226;28;20139;-42
2021/10/25 01:41:50;;;;;;;8.93;4.82;;;;;;;;;;2087521;28;20458;-42
2021/10/25 01:42:51;;;;;;;11.32;4.82;;;;;;;;;;2089548;28;20501;-42
2021/10/25 01:43:52;;;;;;;14.40;4.60;;;;;;;;;;2088907;28;20045;-42
2021/10/25 01:44:53;;;;;;;7.93;4.45;;;;;;;;;;2087904;28;20051;-42
2021/10/25 01:45:54;;;;;;;9.23;5.35;;;;;;;;;;2089557;28;20410;-42
2021/10/25 01:46:55;;;;;;;12.63;4.57;;;;;;;;;;2088777;28;20135;-42
2021/10/25 01:47:57;;;;;;;12.10;5.60;;;;;;;;;;2087737;28;20090;-42
2021/10/25 01:48:57;;;;;;;10.18;4.25;;;;;;;;;;2089668;28;20045;-42
2021/10/25 01:50:00;;;;;;;9.87;5.67;;;;;;;;;;2088569;28;20433;-42
2021/10/25 01:51:01;;;;;;;10.05;6.03;;;;;;;;;;2087897;28;20569;-42
2021/10/25 01:52:03;;;;;;;11.77;6.07;;;;;;;;;;2089601;28;20063;-42
2021/10/25 01:53:04;;;;;;;13.27;7.03;;;;;;;;;;2087304;28;20537;-42
2021/10/25 01:54:06;;;;;;;14.07;5.40;;;;;;;;;;2088854;28;20056;-42
2021/10/25 01:55:07;;;;;;;12.40;6.63;;;;;;;;;;2089449;28;20128;-42
2021/10/25 01:56:09;;;;;;;;;;;;;;;;;;2087699;28;20049;-42
2021/10/25 01:57:10;;;;;;;10.77;5.47;;;;;;;;;;2089067;28;20011;-42
2021/10/25 01:58:11;;;;;;;9.00;4.50;;;;;;;;;;2089550;28;20045;-43
2021/10/25 01:59:12;;;;;;;13.45;5.75;;;;;;;;;;2087282;28;20136;-43
2021/10/25 02:00:13;;;;;;;12.80;6.60;;;;;;;;;;2088581;28;20394;-42
2021/10/25 02:01:15;;;;;;;10.95;6.25;;;;;;;;;;2089529;28;20118;-42
2021/10/25 02:02:16;;;;;;;;;;;;;;;;;;2087878;28;20045;-43
2021/10/25 02:03:17;;;;;;;9.35;4.95;;;;;;;;;;2087531;28;20003;-43
2021/10/25 02:04:18;;;;;;;12.50;5.28;;;;;;;;;;2089340;28;20041;-43
2021/10/25 02:05:19;;;;;;;11.30;6.45;;;;;;;;;;2088364;28;20055;-43
2021/10/25 02:06:21;;;;;;;11.77;5.93;;;;;;;;;;2089350;28;20174;-43
2021/10/25 02:07:22;;;;;;;11.60;5.75;;;;;;;;;;2089580;28;20098;-43
2021/10/25 02:08:23;;;;;;;11.75;5.93;;;;;;;;;;2088349;28;20492;-43
2021/10/25 02:09:24;;;;;;;11.43;5.70;;;;;;;;;;2089569;28;20049;-43
2021/10/25 02:10:25;;;;;;;10.97;6.70;;;;;;;;;;2088913;28;20139;-43
2021/10/25 02:11:26;;;;;;;9.38;5.18;;;;;;;;;;2087392;28;20365;-42
2021/10/25 02:12:27;;;;;;;14.15;6.15;;;;;;;;;;2089437;28;20131;-43
2021/10/25 02:13:28;;;;;;;12.55;6.03;;;;;;;;;;2089157;28;20048;-43
2021/10/25 02:14:29;;;;;;;11.30;5.88;;;;;;;;;;2087349;28;20072;-42
2021/10/25 02:15:30;;;;;;;11.73;7.03;;;;;;;;;;2089378;28;20056;-42
2021/10/25 02:16:31;;;;;;;11.18;5.78;;;;;;;;;;2090122;28;20511;-43
2021/10/25 02:17:33;;;;;;;11.25;6.13;;;;;;;;;;2087492;28;20041;-42
2021/10/25 02:18:34;;;;;;;13.50;5.72;;;;;;;;;;2089338;28;20585;-42
2021/10/25 02:19:35;;;;;;;11.32;6.70;;;;;;;;;;2089888;28;20059;-43
2021/10/25 02:20:36;;;;;;;14.48;6.63;;;;;;;;;;2086983;28;20132;-43
2021/10/25 02:21:39;;;;;;;12.82;5.88;;;;;;;;;;2089301;28;20410;-43
2021/10/25 02:22:40;;;;;;;14.25;7.13;;;;;;;;;;2089552;28;20409;-43
2021/10/25 02:23:42;;;;;;;12.87;6.03;;;;;;;;;;2087038;28;20055;-43
2021/10/25 02:24:43;;;;;;;12.27;6.47;;;;;;;;;;2089520;28;20063;-42
2021/10/25 02:25:45;;;;;;;11.88;5.10;;;;;;;;;;2087477;28;20566;-43
2021/10/25 02:26:46;;;;;;;14.18;6.50;;;;;;;;;;2088780;28;20041;-43
2021/10/25 02:27:47;;;;;;;14.02;6.20;;;;;;;;;;2089424;28;20405;-42
2021/10/25 02:28:48;;;;;;;18.17;9.25;;;;;;;;;;2089462;28;20115;-42
2021/10/25 02:29:49;;;;;;;28.50;10.70;;;;;;;;;;2088071;28;20460;-42
2021/10/25 02:30:50;;;;;;;22.15;9.95;;;;;;;;;;2089237;28;20478;-42
2021/10/25 02:31:51;;;;;;;30.15;13.80;;;;;;;;;;2086975;28;20094;-42
2021/10/25 02:32:52;;;;;;;24.58;12.02;;;;;;;;;;2089195;28;20128;-42
2021/10/25 02:33:54;;;;;;;32.55;14.57;;;;;;;;;;2089290;28;20041;-42
2021/10/25 02:34:54;;;;;;;26.88;14.20;;;;;;;;;;2086901;28;20131;-42
2021/10/25 02:35:55;;;;;;;28.92;13.85;;;;;;;;;;2089303;28;20041;-43
2021/10/25 02:36:57;;;;;;;32.13;11.68;;;;;;;;;;2088844;28;20056;-42
2021/10/25 02:37:59;;;;;;;42.38;18.55;;;;;;;;;;2087248;28;20087;-42
2021/10/25 02:38:59;;;;;;;47.22;17.02;;;;;;;;;;2089349;28;20128;-42
2021/10/25 02:40:01;;;;;;;50.55;19.92;;;;;;;;;;2090230;28;20529;-43
2021/10/25 02:41:02;;;;;;;38.55;14.43;;;;;;;;;;2087465;28;20132;-42
2021/10/25 02:42:03;;;;;;;46.93;18.10;;;;;;;;;;2089209;28;20166;-43
2021/10/25 02:43:04;;;;;;;50.28;16.73;;;;;;;;;;2089414;28;20857;-43
2021/10/25 02:44:05;;;;;;;61.90;23.90;;;;;;;;;;2088008;28;20143;-43
2021/10/25 02:45:07;;;;;;;54.17;21.35;;;;;;;;;;2089304;28;20098;-43
2021/10/25 02:46:08;;;;;;;60.45;21.50;;;;;;;;;;2089565;28;20045;-43
2021/10/25 02:47:09;;;;;;;62.88;25.75;;;;;;;;;;2081826;28;20046;-43
2021/10/25 02:48:11;;;;;;;66.30;23.50;;;;;;;;;;2081171;28;20057;-43
2021/10/25 02:49:12;;;;;;;76.72;26.77;;;;;;;;;;2084969;28;20128;-43
2021/10/25 02:50:14;;;;;;;80.10;29.03;;;;;;;;;;2089091;28;20056;-43
2021/10/25 02:51:15;;;;;;;69.35;24.85;;;;;;;;;;2089123;28;20132;-43
2021/10/25 02:52:18;;;;;;;53.75;21.08;;;;;;;;;;2086789;28;20059;-43
2021/10/25 02:53:19;;;;;;;49.45;18.48;;;;;;;;;;2089116;28;20505;-43
2021/10/25 02:54:20;;;;;;;52.47;21.40;;;;;;;;;;2089362;28;20049;-43
2021/10/25 02:55:22;;;;;;;45.92;18.35;;;;;;;;;;2084838;28;20136;-43
2021/10/25 02:56:23;;;;;;;53.25;20.25;;;;;;;;;;2089151;28;20581;-43
2021/10/25 02:57:24;;;;;;;47.67;18.75;;;;;;;;;;2089471;28;20102;-43
2021/10/25 02:58:25;;;;;;;54.75;18.13;;;;;;;;;;2087745;28;20120;-43
2021/10/25 02:59:26;;;;;;;43.17;15.32;;;;;;;;;;2088830;28;20513;-43
2021/10/25 03:00:27;;;;;;;44.60;20.23;;;;;;;;;;2088457;28;20271;-41
2021/10/25 03:01:28;;;;;;;44.83;16.13;;;;;;;;;;2087310;28;20045;-43
2021/10/25 03:02:29;;;;;;;47.45;21.42;;;;;;;;;;2088965;28;20059;-43
2021/10/25 03:03:30;;;;;;;43.47;19.02;;;;;;;;;;2086945;28;20045;-43
2021/10/25 03:04:32;;;;;;;54.37;23.40;;;;;;;;;;2087297;28;20136;-43
2021/10/25 03:05:33;;;;;;;45.22;18.95;;;;;;;;;;2090410;28;20506;-43
2021/10/25 03:06:34;;;;;;;51.90;18.73;;;;;;;;;;2089509;28;20065;-43
2021/10/25 03:07:36;;;;;;;53.00;18.70;;;;;;;;;;2089125;28;20052;-43
2021/10/25 03:08:38;;;;;;;48.80;18.90;;;;;;;;;;2090775;28;20134;-43
2021/10/25 03:09:38;;;;;;;43.45;17.10;;;;;;;;;;2089211;28;20128;-43
2021/10/25 03:10:40;;;;;;;43.20;17.95;;;;;;;;;;2089779;28;20041;-43
2021/10/25 03:11:41;;;;;;;47.47;20.08;;;;;;;;;;2090392;28;20049;-43
2021/10/25 03:12:42;;;;;;;42.67;15.10;;;;;;;;;;2088249;28;20550;-43
2021/10/25 03:13:43;;;;;;;39.75;17.05;;;;;;;;;;2090560;28;20373;-43
2021/10/25 03:14:44;;;;;;;45.60;19.58;;;;;;;;;;2090604;28;20044;-43
2021/10/25 03:15:46;;;;;;;46.58;18.45;;;;;;;;;;2088189;28;20132;-43
2021/10/25 03:16:47;;;;;;;43.78;17.38;;;;;;;;;;2090506;28;20072;-43
2021/10/25 03:17:48;;;;;;;40.35;16.40;;;;;;;;;;2090448;28;20044;-43
2021/10/25 03:18:49;;;;;;;45.80;20.05;;;;;;;;;;2087224;28;20049;-42
2021/10/25 03:19:50;;;;;;;37.97;15.88;;;;;;;;;;2090698;28;20119;-43
2021/10/25 03:20:51;;;;;;;42.53;19.23;;;;;;;;;;2089887;28;20082;-43
2021/10/25 03:21:52;;;;;;;39.80;15.30;;;;;;;;;;2088528;28;20401;-43
2021/10/25 03:22:54;;;;;;;39.93;17.60;;;;;;;;;;2090397;28;20041;-43
2021/10/25 03:23:58;;;;;;;37.67;15.68;;;;;;;;;;2089966;28;20055;-43
2021/10/25 03:24:59;;;;;;;46.22;15.02;;;;;;;;;;2088660;28;20128;-43
2021/10/25 03:26:01;;;;;;;42.25;14.68;;;;;;;;;;2090494;28;20174;-43
2021/10/25 03:27:02;;;;;;;38.45;17.98;;;;;;;;;;2089412;28;20056;-43
2021/10/25 03:28:03;;;;;;;40.08;17.15;;;;;;;;;;2089068;28;20131;-43
2021/10/25 03:29:05;;;;;;;31.90;13.47;;;;;;;;;;2090645;28;20049;-43
2021/10/25 03:30:06;;;;;;;38.60;17.23;;;;;;;;;;2089529;28;20044;-43
2021/10/25 03:31:07;;;;;;;39.00;16.52;;;;;;;;;;2088035;28;20140;-43
2021/10/25 03:32:09;;;;;;;32.80;14.02;;;;;;;;;;2090434;28;20073;-43
2021/10/25 03:33:10;;;;;;;41.33;17.27;;;;;;;;;;2088425;28;20127;-43
2021/10/25 03:34:11;;;;;;;40.55;15.70;;;;;;;;;;2088899;28;20593;-43
2021/10/25 03:35:12;;;;;;;43.60;17.23;;;;;;;;;;2090531;28;20083;-43
2021/10/25 03:36:13;;;;;;;29.98;12.80;;;;;;;;;;2087998;28;20418;-43
2021/10/25 03:37:16;;;;;;;37.55;14.50;;;;;;;;;;2090159;28;20067;-43
2021/10/25 03:38:18;;;;;;;31.90;13.02;;;;;;;;;;2090373;28;20057;-43
2021/10/25 03:39:22;;;;;;;34.33;14.73;;;;;;;;;;2088203;28;20063;-43
2021/10/25 03:40:23;;;;;;;34.47;14.30;;;;;;;;;;2090208;28;20053;-43
2021/10/25 03:41:30;;;;;;;24.52;13.32;;;;;;;;;;2090316;28;20520;-43
2021/10/25 03:42:35;;;;;;;42.33;14.43;;;;;;;;;;2089149;28;20476;-44
2021/10/25 03:43:41;;;;;;;28.67;12.80;;;;;;;;;;2090484;28;20048;-43
2021/10/25 03:44:46;;;;;;;27.92;13.32;;;;;;;;;;2089642;28;20045;-43
2021/10/25 03:45:50;;;;;;;33.95;14.27;;;;;;;;;;2088568;28;20127;-43
2021/10/25 03:46:55;;;;;;;29.25;11.57;;;;;;;;;;2090203;28;20052;-43
2021/10/25 03:48:00;;;;;;;29.42;13.80;;;;;;;;;;2089318;28;20044;-42
2021/10/25 03:49:06;;;;;;;27.95;12.20;;;;;;;;;;2089954;28;20139;-42
2021/10/25 03:50:10;;;;;;;29.55;13.00;;;;;;;;;;2090511;28;20052;-42
2021/10/25 03:51:13;;;;;;;34.08;12.48;;;;;;;;;;2090168;28;20044;-42
2021/10/25 03:52:21;;;;;;;30.30;13.05;;;;;;;;;;2089969;28;20128;-42
2021/10/25 03:53:30;;;;;;;26.27;12.57;;;;;;;;;;2090427;28;20053;-42
2021/10/25 03:54:35;;;;;;;34.92;13.85;;;;;;;;;;2088861;28;20640;-42
2021/10/25 03:55:42;;;;;;;42.00;14.68;;;;;;;;;;2090061;28;20063;-42
2021/10/25 03:56:57;;;;;;;31.08;14.25;;;;;;;;;;2089192;28;20241;-42
2021/10/25 03:59:40;;;;;;;36.13;14.85;;;;;;;;;;2090367;28;20133;-42
2021/10/25 04:01:05;;;;;;;30.17;10.68;;;;;;;;;;2088811;28;20052;-42
2021/10/25 04:02:26;;;;;;;32.20;12.25;;;;;;;;;;2090242;28;20057;-43
2021/10/25 04:03:57;;;;;;;37.08;12.15;;;;;;;;;;2087736;28;20103;-43
2021/10/25 04:13:25;;;;;;;36.08;14.23;;;;;;;;;;2089024;28;20076;-43
2021/10/25 04:25:34;;;;;;;51.33;17.83;;;;;;;;;;2081989;28;20188;-43
2021/10/25 04:27:09;;;;;;;48.05;15.57;;;;;;;;;;2084501;28;20127;-44
2021/10/25 04:28:12;;;;;;;53.13;16.08;;;;;;;;;;2081678;28;20132;-43
2021/10/25 04:29:16;;;;;;;45.67;16.55;;;;;;;;;;2084193;28;20132;-43
2021/10/25 04:30:18;;;;;;;44.75;15.98;;;;;;;;;;2088517;28;20107;-43
2021/10/25 04:31:20;;;;;;;46.50;17.27;;;;;;;;;;2090019;28;20132;-43
2021/10/25 04:32:20;;;;;;;44.10;15.65;;;;;;;;;;2087920;28;20041;-43
2021/10/25 04:33:22;;;;;;;44.38;14.95;;;;;;;;;;2089912;28;20049;-43
2021/10/25 04:34:23;;;;;;;43.78;16.52;;;;;;;;;;2090033;28;20080;-43
2021/10/25 04:35:24;;;;;;;44.70;17.47;;;;;;;;;;2087712;28;20037;-43
2021/10/25 04:36:25;;;;;;;41.45;14.95;;;;;;;;;;2089987;28;20482;-43
2021/10/25 04:37:26;;;;;;;38.25;14.45;;;;;;;;;;2089907;28;20057;-43
2021/10/25 04:38:27;;;;;;;44.63;17.70;;;;;;;;;;2087615;28;20046;-43
2021/10/25 04:39:29;;;;;;;42.78;17.52;;;;;;;;;;2089801;28;20048;-43
2021/10/25 04:40:31;;;;;;;45.22;17.83;;;;;;;;;;2090136;28;20053;-43
2021/10/25 04:41:32;;;;;;;43.55;16.85;;;;;;;;;;2088958;28;20123;-42
2021/10/25 04:42:33;;;;;;;38.30;14.27;;;;;;;;;;2090090;28;20099;-43
2021/10/25 04:43:34;;;;;;;35.00;13.80;;;;;;;;;;2089875;28;20173;-43
2021/10/25 04:44:36;;;;;;;31.08;14.43;;;;;;;;;;2088415;28;20049;-48
2021/10/25 04:45:37;;;;;;;32.88;13.15;;;;;;;;;;2089940;28;20140;-48
2021/10/25 04:46:38;;;;;;;32.58;15.40;;;;;;;;;;2089977;28;20103;-48
2021/10/25 04:47:39;;;;;;;35.53;13.77;;;;;;;;;;2088555;28;20046;-47
2021/10/25 04:48:41;;;;;;;34.55;14.82;;;;;;;;;;2089955;28;20488;-48
2021/10/25 04:49:42;;;;;;;36.63;15.80;;;;;;;;;;2089406;28;20049;-47
2021/10/25 04:50:43;;;;;;;28.95;11.30;;;;;;;;;;2087070;28;20128;-47
2021/10/25 04:51:44;;;;;;;27.45;13.02;;;;;;;;;;2089486;28;20075;-46
2021/10/25 04:52:45;;;;;;;28.50;14.07;;;;;;;;;;2089203;28;20135;-47
2021/10/25 04:53:46;;;;;;;29.17;11.77;;;;;;;;;;2088300;28;20131;-50
2021/10/25 04:54:47;;;;;;;29.00;13.30;;;;;;;;;;2090016;28;20059;-49
2021/10/25 04:55:49;;;;;;;30.52;13.95;;;;;;;;;;2090463;28;20055;-49
2021/10/25 04:56:50;;;;;;;31.75;14.35;;;;;;;;;;2088348;28;20128;-46
2021/10/25 04:57:51;;;;;;;27.30;14.13;;;;;;;;;;2089980;28;20044;-47
2021/10/25 04:58:52;;;;;;;32.08;12.65;;;;;;;;;;2088669;28;20620;-49
2021/10/25 04:59:53;;;;;;;35.93;15.57;;;;;;;;;;2088714;28;20091;-47
2021/10/25 05:00:54;;;;;;;30.83;14.25;;;;;;;;;;2089949;28;20049;-46
2021/10/25 05:01:55;;;;;;;32.50;14.27;;;;;;;;;;2090165;28;20045;-49
2021/10/25 05:02:58;;;;;;;29.98;14.82;;;;;;;;;;2087066;28;20753;-50
2021/10/25 05:04:00;;;;;;;35.28;16.45;;;;;;;;;;2089767;28;20049;-47
2021/10/25 05:05:02;;;;;;;45.50;16.10;;;;;;;;;;2087704;28;20193;-47
2021/10/25 05:06:03;;;;;;;380.02;56.95;;;;;;;;;;2089624;28;20110;-47
2021/10/25 05:07:04;;;;;;;142.25;39.95;;;;;;;;;;2089679;28;20537;-47
2021/10/25 05:08:05;;;;;;;232.75;68.30;;;;;;;;;;2087411;28;20421;-47
2021/10/25 05:09:06;;;;;;;170.88;46.28;;;;;;;;;;2089600;28;20492;-45
2021/10/25 05:10:09;;;;;;;138.73;39.65;;;;;;;;;;2089704;28;20585;-46
2021/10/25 05:11:10;;;;;;;137.10;42.03;;;;;;;;;;2087270;28;20037;-46
2021/10/25 05:12:13;;;;;;;108.85;34.08;;;;;;;;;;2089698;28;20478;-48
2021/10/25 05:13:14;;;;;;;107.72;30.67;;;;;;;;;;2089713;28;20045;-48
2021/10/25 05:14:15;;;;;;;99.68;32.40;;;;;;;;;;2088702;28;20044;-47
2021/10/25 05:15:17;;;;;;;63.60;24.00;;;;;;;;;;2089739;28;20084;-47
2021/10/25 05:16:17;;;;;;;57.95;23.45;;;;;;;;;;2089897;28;20140;-47
2021/10/25 05:17:19;;;;;;;49.55;18.88;;;;;;;;;;2088312;28;20509;-47
2021/10/25 05:18:20;;;;;;;46.88;19.52;;;;;;;;;;2089839;28;20478;-47
2021/10/25 05:19:21;;;;;;;54.63;20.02;;;;;;;;;;2089174;28;20632;-47
2021/10/25 05:20:22;;;;;;;55.22;22.13;;;;;;;;;;2087016;28;20102;-46
2021/10/25 05:21:23;;;;;;;45.63;19.30;;;;;;;;;;2089815;28;20132;-47
2021/10/25 05:22:24;;;;;;;49.22;24.80;;;;;;;;;;2090321;28;20127;-48
2021/10/25 05:23:25;;;;;;;48.95;19.98;;;;;;;;;;2087958;28;20036;-47
2021/10/25 05:24:26;;;;;;;45.03;18.10;;;;;;;;;;2089726;28;20080;-47
2021/10/25 05:25:28;;;;;;;35.78;17.80;;;;;;;;;;2089964;28;20144;-46
2021/10/25 05:26:30;;;;;;;37.47;20.25;;;;;;;;;;2088307;28;20131;-46
2021/10/25 05:27:31;;;;;;;40.47;20.58;;;;;;;;;;2088859;28;20076;-46
2021/10/25 05:28:32;;;;;;;39.72;19.77;;;;;;;;;;2088301;28;20048;-46
2021/10/25 05:29:33;;;;;;;37.53;17.08;;;;;;;;;;2088541;28;20048;-46
2021/10/25 05:30:34;;;;;;;40.83;21.52;;;;;;;;;;2089637;28;20141;-47
2021/10/25 05:31:35;;;;;;;35.40;17.20;;;;;;;;;;2087768;28;20048;-46
2021/10/25 05:32:37;;;;;;;33.88;18.52;;;;;;;;;;2089093;28;20135;-46
2021/10/25 05:33:39;;;;;;;45.58;18.52;;;;;;;;;;2089580;28;20049;-46
2021/10/25 05:34:41;;;;;;;38.35;20.00;;;;;;;;;;2087546;28;20056;-47
2021/10/25 05:35:42;;;;;;;33.42;18.75;;;;;;;;;;2089405;28;20128;-46
2021/10/25 05:36:43;;;;;;;42.75;19.25;;;;;;;;;;2089715;28;20079;-46
2021/10/25 05:37:44;;;;;;;41.50;19.60;;;;;;;;;;2089329;28;20202;-46
2021/10/25 05:38:45;;;;;;;42.95;18.85;;;;;;;;;;2088956;28;20163;-47
2021/10/25 05:39:47;;;;;;;43.85;19.50;;;;;;;;;;2089596;28;20068;-46
2021/10/25 05:40:48;;;;;;;33.28;19.48;;;;;;;;;;2087107;28;20045;-47
2021/10/25 05:41:49;;;;;;;38.88;21.27;;;;;;;;;;2089581;28;20102;-46
2021/10/25 05:42:53;;;;;;;40.90;19.80;;;;;;;;;;2089634;28;20484;-46
2021/10/25 05:43:54;;;;;;;;;;;;;;;;;;2087595;28;20518;-48
2021/10/25 05:44:56;;;;;;;40.42;16.50;;;;;;;;;;2089571;28;19920;-47
2021/10/25 05:45:56;;;;;;;38.28;16.70;;;;;;;;;;2089081;28;20547;-47
2021/10/25 05:46:59;;;;;;;42.45;21.25;;;;;;;;;;2087462;28;20053;-46
2021/10/25 05:48:00;;;;;;;36.03;16.42;;;;;;;;;;2089316;28;20049;-46
2021/10/25 05:49:01;;;;;;;42.40;22.73;;;;;;;;;;2089043;28;20053;-46
2021/10/25 05:50:02;;;;;;;42.83;20.98;;;;;;;;;;2086924;28;20290;-47
2021/10/25 05:51:04;;;;;;;42.53;20.35;;;;;;;;;;2089410;28;20057;-49
2021/10/25 05:52:05;;;;;;;37.03;19.48;;;;;;;;;;2088835;28;20052;-47
2021/10/25 05:53:06;;;;;;;35.13;18.35;;;;;;;;;;2087643;28;20451;-47
2021/10/25 05:54:08;;;;;;;37.53;18.90;;;;;;;;;;2089579;28;20131;-47
2021/10/25 05:55:09;;;;;;;40.83;19.70;;;;;;;;;;2088561;28;20136;-47
2021/10/25 05:56:10;;;;;;;39.55;20.13;;;;;;;;;;2087860;28;20466;-47
2021/10/25 05:57:13;;;;;;;38.47;18.83;;;;;;;;;;2089396;28;20045;-47
2021/10/25 05:58:18;;;;;;;35.10;17.90;;;;;;;;;;2089795;28;20093;-47
2021/10/25 05:59:24;;;;;;;33.53;17.05;;;;;;;;;;2088198;28;20052;-48
2021/10/25 06:00:27;;;;;;;37.33;16.52;;;;;;;;;;2089616;28;20131;-46
2021/10/25 06:01:31;;;;;;;34.72;18.77;;;;;;;;;;2087150;28;20390;-47
2021/10/25 06:02:35;;;;;;;27.80;15.85;;;;;;;;;;2089203;28;20081;-48
2021/10/25 06:03:36;;;;;;;36.15;18.00;;;;;;;;;;2088151;28;20076;-47
2021/10/25 06:04:38;;;;;;;38.78;15.95;;;;;;;;;;2087078;28;20048;-48
2021/10/25 06:05:41;;;;;;;34.58;17.52;;;;;;;;;;2089482;28;20133;-47
2021/10/25 06:06:42;;;;;;;35.30;16.92;;;;;;;;;;2089325;28;20044;-47
2021/10/25 06:07:43;;;;;;;35.33;17.10;;;;;;;;;;2088326;28;20072;-47
2021/10/25 06:08:44;;;;;;;28.30;14.63;;;;;;;;;;2089318;28;20102;-47
2021/10/25 06:09:45;;;;;;;30.77;16.50;;;;;;;;;;2090011;28;20127;-47
2021/10/25 06:10:47;;;;;;;26.02;15.73;;;;;;;;;;2087828;28;20124;-48
2021/10/25 06:11:48;;;;;;;29.92;17.80;;;;;;;;;;2089271;28;20045;-51
2021/10/25 06:12:50;;;;;;;27.80;15.05;;;;;;;;;;2088756;28;20512;-49
2021/10/25 06:13:54;;;;;;;;;;;;;;;;;;2087960;28;20067;-50
2021/10/25 06:15:05;;;;;;;24.17;12.25;;;;;;;;;;2089517;28;20015;-48
2021/10/25 06:16:11;;;;;;;29.77;15.93;;;;;;;;;;2089658;28;20045;-52
2021/10/25 06:17:25;;;;;;;28.23;15.73;;;;;;;;;;2087583;28;20041;-48
2021/10/25 06:18:26;;;;;;;35.47;17.30;;;;;;;;;;2089333;28;20458;-50
2021/10/25 06:19:28;;;;;;;30.07;16.20;;;;;;;;;;2084530;28;20051;-51
2021/10/25 06:20:29;;;;;;;33.80;17.25;;;;;;;;;;2089201;28;20468;-51
2021/10/25 06:21:31;;;;;;;27.13;15.57;;;;;;;;;;2088954;28;20143;-48
2021/10/25 06:22:35;;;;;;;31.15;16.90;;;;;;;;;;2087344;28;20049;-49
2021/10/25 06:23:36;;;;;;;29.80;17.15;;;;;;;;;;2089314;28;20151;-49
2021/10/25 06:24:38;;;;;;;;;;;;;;;;;;2090383;28;20061;-49
2021/10/25 06:25:39;;;;;;;31.92;15.18;;;;;;;;;;2087502;28;19920;-53
2021/10/25 06:26:40;;;;;;;33.53;17.63;;;;;;;;;;2089392;28;20128;-52